Time;durP1;ratioP1;P1;durP2;ratioP2;P2;SDS_P1;SDS_P2;PMS_P1;PMS_P2;Temp;Humidity;BMP_temperature;BMP_pressure;BME280_temperature;BME280_humidity;BME280_pressure;Samples;Min_cycle;Max_cycle;Signal;HPM_P1;HPM_P2
2022/03/09 00:00:20;;;;;;;5.05;2.65;;;2.20;99.90;;;;;;5051699;28;20498;-74
2022/03/09 00:02:46;;;;;;;4.30;2.60;;;2.20;99.90;;;;;;5052191;28;20045;-73
2022/03/09 00:05:12;;;;;;;8.25;2.47;;;2.20;99.90;;;;;;5035274;28;20090;-73
2022/03/09 00:07:38;;;;;;;5.63;2.70;;;2.20;99.90;;;;;;5051724;28;20515;-73
2022/03/09 00:10:05;;;;;;;5.05;2.47;;;2.20;99.90;;;;;;5035047;28;20127;-73
2022/03/09 00:12:31;;;;;;;5.88;2.75;;;2.20;99.90;;;;;;5051896;28;20393;-73
2022/03/09 00:14:57;;;;;;;5.07;2.90;;;2.20;99.90;;;;;;5051569;28;20044;-73
2022/03/09 00:17:23;;;;;;;5.13;2.78;;;2.10;99.90;;;;;;5051770;28;20037;-73
2022/03/09 00:19:49;;;;;;;5.38;2.78;;;2.10;99.90;;;;;;5034973;28;20373;-73
2022/03/09 00:22:15;;;;;;;4.60;3.03;;;2.10;99.90;;;;;;5051464;28;20040;-73
2022/03/09 00:24:41;;;;;;;4.43;2.80;;;2.10;99.90;;;;;;5051572;28;20048;-73
2022/03/09 00:27:07;;;;;;;5.30;3.20;;;2.10;99.90;;;;;;5051192;28;20044;-73
2022/03/09 00:29:33;;;;;;;6.65;2.75;;;2.10;99.90;;;;;;5051357;28;20051;-74
2022/03/09 00:31:59;;;;;;;4.68;3.13;;;2.00;99.90;;;;;;5034368;28;20049;-73
2022/03/09 00:34:24;;;;;;;7.38;3.03;;;2.00;99.90;;;;;;5051017;28;20515;-74
2022/03/09 00:36:50;;;;;;;5.53;3.15;;;2.00;99.90;;;;;;5034736;28;20190;-73
2022/03/09 00:39:16;;;;;;;6.00;3.05;;;1.90;99.90;;;;;;5051047;28;20041;-73
2022/03/09 00:41:41;;;;;;;5.57;2.95;;;1.90;99.90;;;;;;5051133;28;20095;-73
2022/03/09 00:44:07;;;;;;;5.63;3.20;;;1.90;99.90;;;;;;5050956;28;20036;-73
2022/03/09 00:46:33;;;;;;;4.43;2.97;;;1.90;99.90;;;;;;5034439;28;20049;-73
2022/03/09 00:48:58;;;;;;;5.55;3.13;;;1.90;99.90;;;;;;5034944;28;20052;-73
2022/03/09 00:51:24;;;;;;;5.50;3.13;;;1.90;99.90;;;;;;5034797;28;20047;-73
2022/03/09 00:53:50;;;;;;;6.78;3.33;;;1.80;99.90;;;;;;5034146;28;20045;-71
2022/03/09 00:56:16;;;;;;;5.78;3.15;;;1.80;99.90;;;;;;5050856;28;20033;-73
2022/03/09 00:58:42;;;;;;;6.15;3.45;;;1.80;99.90;;;;;;5034273;28;20060;-73
2022/03/09 01:01:10;;;;;;;5.80;3.00;;;1.90;99.90;;;;;;5050865;28;20045;-73
2022/03/09 01:03:36;;;;;;;6.03;3.30;;;1.80;99.90;;;;;;5050850;28;20055;-73
2022/03/09 01:06:02;;;;;;;5.68;3.38;;;1.90;99.90;;;;;;5050075;28;20045;-73
2022/03/09 01:08:27;;;;;;;8.52;3.63;;;2.50;99.90;;;;;;5050573;28;20438;-74
2022/03/09 01:10:53;;;;;;;5.97;2.90;;;1.80;99.90;;;;;;5050578;28;20057;-73
2022/03/09 01:13:19;;;;;;;6.45;3.60;;;1.80;99.90;;;;;;5033780;28;20060;-73
2022/03/09 01:15:45;;;;;;;7.38;3.00;;;1.80;99.90;;;;;;5050634;28;20072;-71
2022/03/09 01:18:12;;;;;;;8.00;3.80;;;1.80;99.90;;;;;;5033781;28;20079;-73
2022/03/09 01:20:37;;;;;;;6.45;3.53;;;1.70;99.90;;;;;;5050433;28;20048;-73
2022/03/09 01:23:03;;;;;;;6.00;3.65;;;1.90;99.90;;;;;;5050671;28;20373;-71
2022/03/09 01:25:28;;;;;;;4.82;3.13;;;1.70;99.90;;;;;;5050765;28;20044;-71
2022/03/09 01:27:54;;;;;;;6.93;3.53;;;1.70;99.90;;;;;;5034055;28;20045;-72
2022/03/09 01:30:20;;;;;;;5.88;3.63;;;1.70;99.90;;;;;;5033934;28;20045;-71
2022/03/09 01:32:45;;;;;;;7.82;3.45;;;1.70;99.90;;;;;;5033855;28;20036;-72
2022/03/09 01:35:12;;;;;;;7.97;4.03;;;1.70;99.90;;;;;;5050228;28;20404;-73
2022/03/09 01:37:37;;;;;;;7.65;4.13;;;1.90;99.90;;;;;;5050603;28;20558;-73
2022/03/09 01:40:04;;;;;;;7.25;4.10;;;1.60;99.90;;;;;;5050364;28;20041;-73
2022/03/09 01:42:29;;;;;;;6.72;3.78;;;1.60;99.90;;;;;;5017183;28;20038;-72
2022/03/09 01:45:00;;;;;;;7.72;3.95;;;1.60;99.90;;;;;;5017663;28;20047;-72
2022/03/09 01:47:26;;;;;;;6.25;3.83;;;1.30;99.90;;;;;;5050665;28;20523;-72
2022/03/09 01:49:52;;;;;;;8.93;5.75;;;1.50;99.90;;;;;;5033980;28;20091;-73
2022/03/09 01:52:17;;;;;;;4.78;3.30;;;1.70;99.90;;;;;;5050654;28;20047;-72
2022/03/09 01:54:44;;;;;;;6.20;3.80;;;1.60;99.90;;;;;;5050009;28;20053;-72
2022/03/09 01:57:10;;;;;;;8.23;4.18;;;1.60;99.90;;;;;;5049946;28;20057;-73
2022/03/09 01:59:36;;;;;;;5.80;3.70;;;1.60;99.90;;;;;;5050205;28;20086;-73
2022/03/09 02:02:02;;;;;;;6.95;4.40;;;1.60;99.90;;;;;;5050493;28;20495;-72
2022/03/09 02:04:28;;;;;;;6.38;3.67;;;1.50;99.90;;;;;;5033814;28;20052;-73
2022/03/09 02:06:54;;;;;;;7.65;4.57;;;1.70;99.90;;;;;;5033536;28;20045;-73
2022/03/09 02:12:04;;;;;;;7.38;4.32;;;1.60;99.90;;;;;;5050058;28;20098;-72
2022/03/09 02:14:32;;;;;;;6.65;4.15;;;1.40;99.90;;;;;;5049980;28;20480;-73
2022/03/09 02:17:01;;;;;;;6.78;3.97;;;1.50;99.90;;;;;;5052328;28;20458;-73
2022/03/09 02:19:27;;;;;;;8.43;4.53;;;1.50;99.90;;;;;;5054013;28;20385;-72
2022/03/09 02:22:10;;;;;;;6.55;4.18;;;1.60;99.90;;;;;;5053702;28;20513;-73
2022/03/09 02:24:36;;;;;;;8.70;4.60;;;1.50;99.90;;;;;;5053715;28;20059;-73
2022/03/09 02:27:02;;;;;;;6.20;4.15;;;1.60;99.90;;;;;;5037024;28;20049;-73
2022/03/09 02:29:28;;;;;;;7.30;4.20;;;1.40;99.90;;;;;;5053400;28;20040;-73
2022/03/09 02:31:53;;;;;;;6.28;4.60;;;1.50;99.90;;;;;;5037055;28;20132;-73
2022/03/09 02:34:19;;;;;;;5.93;4.15;;;1.70;99.90;;;;;;5036900;28;20045;-73
2022/03/09 02:36:45;;;;;;;8.32;4.72;;;1.50;99.90;;;;;;5053507;28;20044;-73
2022/03/09 02:39:10;;;;;;;8.35;4.32;;;1.40;99.90;;;;;;5037004;28;20059;-73
2022/03/09 02:41:36;;;;;;;7.65;4.30;;;1.40;99.90;;;;;;5036735;28;20087;-73
2022/03/09 02:44:02;;;;;;;8.70;4.80;;;1.30;99.90;;;;;;5053432;28;20132;-73
2022/03/09 02:46:28;;;;;;;7.55;4.97;;;1.20;99.90;;;;;;5053354;28;20132;-72
2022/03/09 02:48:54;;;;;;;9.70;4.80;;;1.00;99.90;;;;;;5053217;28;20140;-72
2022/03/09 02:51:20;;;;;;;8.63;5.32;;;1.20;99.90;;;;;;5019941;28;20040;-74
2022/03/09 02:53:45;;;;;;;9.13;4.93;;;1.20;99.90;;;;;;5036108;28;20117;-73
2022/03/09 02:56:11;;;;;;;8.65;4.90;;;1.00;99.90;;;;;;5053186;28;20123;-73
2022/03/09 02:58:37;;;;;;;10.02;5.30;;;1.00;99.90;;;;;;5052829;28;20053;-73
2022/03/09 03:01:03;;;;;;;9.57;5.25;;;1.00;99.90;;;;;;5052890;28;20166;-74
2022/03/09 03:03:28;;;;;;;9.18;5.60;;;1.00;99.90;;;;;;5036711;28;20045;-73
2022/03/09 03:05:54;;;;;;;9.05;5.38;;;0.90;99.90;;;;;;5036158;28;20060;-73
2022/03/09 03:08:20;;;;;;;8.32;5.72;;;0.50;99.90;;;;;;5036126;28;20110;-73
2022/03/09 03:10:45;;;;;;;8.57;5.63;;;0.80;99.90;;;;;;5036298;28;20044;-73
2022/03/09 03:13:11;;;;;;;11.30;4.97;;;0.80;99.90;;;;;;5019913;28;20041;-73
2022/03/09 03:15:37;;;;;;;10.23;5.03;;;0.70;99.90;;;;;;5019886;28;20047;-73
2022/03/09 03:18:04;;;;;;;8.10;5.30;;;0.80;99.90;;;;;;5052927;28;20033;-73
2022/03/09 03:20:29;;;;;;;9.98;5.50;;;0.70;99.90;;;;;;5052612;28;20040;-73
2022/03/09 03:22:55;;;;;;;12.45;5.38;;;0.60;99.90;;;;;;5035981;28;20090;-73
2022/03/09 03:25:21;;;;;;;9.68;5.28;;;0.60;99.90;;;;;;5052610;28;20091;-73
2022/03/09 03:27:47;;;;;;;8.52;5.03;;;0.60;99.90;;;;;;5051823;28;20132;-73
2022/03/09 03:30:12;;;;;;;9.10;5.72;;;0.50;99.90;;;;;;5052758;28;20040;-73
2022/03/09 03:32:38;;;;;;;7.78;4.75;;;0.60;99.90;;;;;;5036242;28;20064;-73
2022/03/09 03:35:04;;;;;;;8.02;5.00;;;0.50;99.90;;;;;;5035600;28;20044;-73
2022/03/09 03:37:30;;;;;;;8.02;4.72;;;0.50;99.90;;;;;;5035984;28;20040;-73
2022/03/09 03:39:56;;;;;;;9.52;4.88;;;0.50;99.90;;;;;;5052105;28;20041;-73
2022/03/09 03:42:22;;;;;;;8.70;5.57;;;0.50;99.90;;;;;;5036082;28;20033;-73
2022/03/09 03:44:48;;;;;;;9.32;5.72;;;1.00;99.90;;;;;;5035618;28;20102;-73
2022/03/09 03:47:14;;;;;;;9.35;5.13;;;0.50;99.90;;;;;;5052106;28;20459;-73
2022/03/09 03:49:39;;;;;;;10.60;5.68;;;0.40;99.90;;;;;;5018934;28;20048;-73
2022/03/09 03:52:05;;;;;;;9.23;5.22;;;0.50;99.90;;;;;;5052331;28;20040;-73
2022/03/09 03:54:31;;;;;;;8.52;5.78;;;0.50;99.90;;;;;;5051850;28;20048;-73
2022/03/09 03:56:57;;;;;;;11.60;5.38;;;0.50;99.90;;;;;;5035564;28;20131;-72
2022/03/09 03:59:23;;;;;;;8.93;5.82;;;0.60;99.90;;;;;;5051950;28;20088;-73
2022/03/09 04:01:48;;;;;;;9.43;5.78;;;0.60;99.90;;;;;;5051698;28;20412;-73
2022/03/09 04:04:14;;;;;;;8.88;5.95;;;0.60;99.90;;;;;;5051764;28;20447;-73
2022/03/09 04:06:40;;;;;;;9.32;4.72;;;0.60;99.90;;;;;;5051722;28;20561;-73
2022/03/09 04:09:05;;;;;;;9.07;5.60;;;0.60;99.90;;;;;;5034979;28;20526;-72
2022/03/09 04:11:31;;;;;;;10.20;5.90;;;0.70;99.90;;;;;;5035084;28;20504;-72
2022/03/09 04:13:57;;;;;;;10.32;5.80;;;0.70;99.90;;;;;;5035120;28;20041;-72
2022/03/09 04:16:23;;;;;;;9.55;5.50;;;0.70;99.90;;;;;;5035427;28;20517;-73
2022/03/09 04:18:48;;;;;;;8.57;5.25;;;0.70;99.90;;;;;;5051390;28;20095;-73
2022/03/09 04:21:14;;;;;;;13.65;5.35;;;0.90;99.90;;;;;;5051595;28;20037;-73
2022/03/09 04:23:40;;;;;;;11.23;6.05;;;1.00;99.90;;;;;;5051657;28;20040;-72
2022/03/09 04:26:10;;;;;;;7.53;4.90;;;0.70;99.90;;;;;;5051404;28;20045;-73
2022/03/09 04:28:36;;;;;;;7.65;5.53;;;0.70;99.90;;;;;;5051558;28;20044;-72
2022/03/09 04:31:01;;;;;;;10.73;5.68;;;0.70;99.90;;;;;;5034626;28;20064;-73
2022/03/09 04:33:27;;;;;;;10.52;5.47;;;0.70;99.90;;;;;;5018543;28;20040;-73
2022/03/09 04:35:53;;;;;;;9.60;5.93;;;0.80;99.90;;;;;;5051188;28;20041;-73
2022/03/09 04:38:18;;;;;;;8.98;5.70;;;0.60;99.90;;;;;;5051174;28;20424;-72
2022/03/09 04:40:44;;;;;;;8.52;5.53;;;0.60;99.90;;;;;;5033797;28;20064;-73
2022/03/09 04:43:10;;;;;;;12.10;5.95;;;0.60;99.90;;;;;;5034819;28;20076;-74
2022/03/09 04:45:35;;;;;;;11.07;5.75;;;0.50;99.90;;;;;;5018502;28;20048;-73
2022/03/09 04:48:01;;;;;;;11.73;6.68;;;0.70;99.90;;;;;;5018194;28;20129;-73
2022/03/09 04:50:27;;;;;;;9.57;6.03;;;0.50;99.90;;;;;;5051240;28;20045;-72
2022/03/09 04:52:53;;;;;;;11.40;5.82;;;0.40;99.90;;;;;;5034538;28;20041;-72
2022/03/09 04:55:18;;;;;;;9.93;6.63;;;0.40;99.90;;;;;;5017945;28;20123;-72
2022/03/09 04:57:44;;;;;;;10.82;6.30;;;0.40;99.90;;;;;;5034283;28;20053;-72
2022/03/09 05:00:10;;;;;;;10.43;6.00;;;0.40;99.90;;;;;;5050796;28;20041;-72
2022/03/09 05:02:36;;;;;;;10.55;6.90;;;0.40;99.90;;;;;;5051211;28;20436;-73
2022/03/09 05:05:03;;;;;;;10.57;6.13;;;0.40;99.90;;;;;;5050631;28;20040;-72
2022/03/09 05:07:29;;;;;;;8.43;5.57;;;0.40;99.90;;;;;;5050603;28;20420;-72
2022/03/09 05:09:54;;;;;;;10.32;5.93;;;0.40;99.90;;;;;;5017913;28;20045;-73
2022/03/09 05:12:20;;;;;;;9.43;5.75;;;0.40;99.90;;;;;;5033799;28;20080;-73
2022/03/09 05:14:46;;;;;;;8.90;6.07;;;0.40;99.90;;;;;;5033784;28;20086;-73
2022/03/09 05:17:12;;;;;;;11.15;6.07;;;0.40;99.90;;;;;;5050477;28;20045;-72
2022/03/09 05:19:37;;;;;;;11.55;6.05;;;0.40;99.90;;;;;;5051078;28;20052;-73
2022/03/09 05:22:03;;;;;;;8.18;5.68;;;0.40;99.90;;;;;;5033896;28;20044;-72
2022/03/09 05:24:29;;;;;;;10.45;6.43;;;0.40;99.90;;;;;;5033842;28;20041;-72
2022/03/09 05:26:55;;;;;;;10.13;5.75;;;0.30;99.90;;;;;;5050296;28;20045;-72
2022/03/09 05:29:21;;;;;;;9.75;6.40;;;0.30;99.90;;;;;;5050316;28;20049;-73
2022/03/09 05:31:47;;;;;;;10.15;6.03;;;0.30;99.90;;;;;;5050202;28;20040;-72
2022/03/09 05:34:13;;;;;;;8.60;6.07;;;0.30;99.90;;;;;;5050109;28;20049;-73
2022/03/09 05:36:39;;;;;;;10.85;6.40;;;0.30;99.90;;;;;;5033715;28;20123;-73
2022/03/09 05:39:05;;;;;;;10.38;6.32;;;0.30;99.90;;;;;;5050652;28;20033;-73
2022/03/09 05:41:32;;;;;;;9.13;6.28;;;0.30;99.90;;;;;;5034170;28;20037;-73
2022/03/09 05:43:58;;;;;;;10.95;6.35;;;0.40;99.90;;;;;;5033615;28;20045;-73
2022/03/09 05:46:24;;;;;;;10.73;6.00;;;0.30;99.90;;;;;;5050286;28;20119;-72
2022/03/09 05:48:50;;;;;;;7.88;5.70;;;0.30;99.90;;;;;;5033556;28;20037;-73
2022/03/09 05:51:15;;;;;;;13.95;7.30;;;0.30;99.90;;;;;;5051391;28;20427;-73
2022/03/09 05:53:41;;;;;;;10.18;5.75;;;0.30;99.90;;;;;;5053954;28;20082;-73
2022/03/09 05:56:07;;;;;;;10.63;6.85;;;0.90;99.90;;;;;;5037774;28;20084;-73
2022/03/09 05:58:33;;;;;;;11.05;6.38;;;0.30;99.90;;;;;;5054156;28;20049;-73
2022/03/09 06:00:59;;;;;;;11.10;6.95;;;0.20;99.90;;;;;;5054251;28;20064;-73
2022/03/09 06:03:24;;;;;;;10.65;6.13;;;0.20;99.90;;;;;;5053949;28;20037;-72
2022/03/09 06:05:50;;;;;;;10.95;6.53;;;0.20;99.90;;;;;;5053913;28;20113;-72
2022/03/09 06:08:16;;;;;;;13.05;6.25;;;0.10;99.90;;;;;;5053763;28;20041;-73
2022/03/09 06:10:42;;;;;;;11.05;7.03;;;0.10;99.90;;;;;;5053945;28;20170;-73
2022/03/09 06:13:07;;;;;;;14.10;6.47;;;0.10;99.90;;;;;;5054115;28;20136;-73
2022/03/09 06:15:33;;;;;;;10.30;6.72;;;0.10;99.90;;;;;;5053601;28;20060;-70
2022/03/09 06:17:59;;;;;;;10.93;6.97;;;0.20;99.90;;;;;;5037487;28;20179;-72
2022/03/09 06:20:25;;;;;;;9.80;6.18;;;0.20;99.90;;;;;;5053595;28;20036;-72
2022/03/09 06:22:54;;;;;;;10.02;5.82;;;0.50;99.90;;;;;;5037842;28;20056;-72
2022/03/09 06:25:20;;;;;;;11.13;6.50;;;0.50;99.90;;;;;;5037367;28;20041;-71
2022/03/09 06:27:48;;;;;;;10.68;6.55;;;0.30;99.90;;;;;;5053522;28;20151;-71
2022/03/09 06:30:15;;;;;;;10.25;6.60;;;1.30;99.90;;;;;;5053643;28;20485;-70
2022/03/09 06:32:42;;;;;;;13.02;6.72;;;0.30;99.90;;;;;;5053773;28;20049;-71
2022/03/09 06:35:09;;;;;;;14.95;6.45;;;0.30;99.90;;;;;;5053117;28;20056;-71
2022/03/09 06:37:35;;;;;;;11.98;6.82;;;0.30;99.90;;;;;;5053705;28;20104;-70
2022/03/09 06:40:02;;;;;;;10.95;7.70;;;0.40;99.90;;;;;;5053129;28;20037;-71
2022/03/09 06:42:29;;;;;;;11.25;6.28;;;0.40;99.90;;;;;;5053327;28;20051;-70
2022/03/09 06:44:55;;;;;;;10.13;6.82;;;0.40;99.90;;;;;;5036726;28;20049;-71
2022/03/09 06:47:21;;;;;;;13.43;6.80;;;0.50;99.90;;;;;;5052952;28;20041;-71
2022/03/09 06:49:47;;;;;;;17.48;6.60;;;0.50;99.90;;;;;;5052955;28;20055;-71
2022/03/09 06:52:13;;;;;;;10.98;6.40;;;0.50;99.90;;;;;;5020285;28;20052;-73
2022/03/09 06:54:39;;;;;;;11.52;6.43;;;0.60;99.90;;;;;;5052681;28;20049;-71
2022/03/09 06:57:04;;;;;;;11.45;6.60;;;0.60;99.90;;;;;;5052430;28;20053;-70
2022/03/09 06:59:30;;;;;;;12.35;6.63;;;0.60;99.90;;;;;;5052903;28;20041;-71
2022/03/09 07:01:56;;;;;;;10.05;6.45;;;0.70;99.90;;;;;;5019930;28;20056;-72
2022/03/09 07:04:21;;;;;;;13.20;7.55;;;0.70;99.90;;;;;;5035473;28;20044;-72
2022/03/09 07:06:47;;;;;;;11.57;6.88;;;0.70;99.90;;;;;;5052824;28;20508;-72
2022/03/09 07:09:14;;;;;;;14.23;7.35;;;0.80;99.90;;;;;;5052660;28;20052;-72
2022/03/09 07:11:41;;;;;;;11.73;7.35;;;0.90;99.90;;;;;;5053242;28;20041;-72
2022/03/09 07:14:07;;;;;;;10.85;6.07;;;0.90;99.90;;;;;;5052842;28;20051;-72
2022/03/09 07:16:33;;;;;;;14.18;7.35;;;1.00;99.90;;;;;;5052884;28;20443;-72
2022/03/09 07:18:59;;;;;;;13.90;7.50;;;1.10;99.90;;;;;;5052589;28;20076;-72
2022/03/09 07:21:28;;;;;;;10.52;6.40;;;1.20;99.90;;;;;;5052465;28;20116;-74
2022/03/09 07:23:53;;;;;;;11.23;6.10;;;1.30;99.90;;;;;;5052584;28;20469;-71
2022/03/09 07:26:19;;;;;;;11.75;7.15;;;1.40;99.90;;;;;;5035977;28;20041;-73
2022/03/09 07:28:45;;;;;;;10.30;6.63;;;1.90;99.90;;;;;;5052442;28;20037;-72
2022/03/09 07:31:11;;;;;;;12.23;7.63;;;1.60;99.90;;;;;;5052593;28;20045;-72
2022/03/09 07:33:36;;;;;;;10.52;6.22;;;1.70;99.90;;;;;;5052133;28;20064;-72
2022/03/09 07:36:03;;;;;;;11.93;6.90;;;1.80;99.90;;;;;;5052162;28;20033;-71
2022/03/09 07:38:29;;;;;;;12.90;6.72;;;1.90;99.90;;;;;;5052159;28;20049;-72
2022/03/09 07:40:54;;;;;;;10.60;6.68;;;2.00;99.90;;;;;;5052288;28;20064;-71
2022/03/09 07:43:20;;;;;;;11.68;6.97;;;2.20;99.90;;;;;;5052129;28;20052;-71
2022/03/09 07:45:47;;;;;;;11.80;7.10;;;2.30;99.90;;;;;;5035547;28;20044;-71
2022/03/09 07:48:12;;;;;;;11.32;6.53;;;2.50;99.90;;;;;;5052029;28;20045;-72
2022/03/09 07:50:38;;;;;;;10.15;6.63;;;2.60;99.90;;;;;;5053607;28;20043;-71
2022/03/09 07:53:05;;;;;;;11.48;7.10;;;2.70;99.90;;;;;;5051932;28;20041;-72
2022/03/09 07:55:31;;;;;;;11.65;6.65;;;2.80;99.90;;;;;;5019030;28;20048;-72
2022/03/09 07:57:57;;;;;;;12.32;7.40;;;2.90;99.90;;;;;;5051763;28;20053;-72
2022/03/09 08:00:23;;;;;;;11.93;7.43;;;2.90;99.90;;;;;;5051887;28;20048;-74
2022/03/09 08:02:48;;;;;;;10.00;6.22;;;3.20;99.90;;;;;;5051658;28;20045;-72
2022/03/09 08:05:15;;;;;;;9.88;6.25;;;3.30;99.90;;;;;;5051613;28;20041;-73
2022/03/09 08:07:41;;;;;;;10.30;6.55;;;3.40;99.90;;;;;;5051619;28;20080;-72
2022/03/09 08:10:09;;;;;;;10.80;6.75;;;3.50;99.90;;;;;;5051489;28;20041;-72
2022/03/09 08:12:34;;;;;;;10.18;6.40;;;3.70;99.90;;;;;;5051811;28;20151;-72
2022/03/09 08:15:00;;;;;;;13.43;7.30;;;3.80;99.90;;;;;;5051362;28;20041;-73
2022/03/09 08:17:26;;;;;;;11.93;6.53;;;3.90;99.90;;;;;;5051867;28;20049;-73
2022/03/09 08:19:52;;;;;;;11.18;6.80;;;4.00;99.90;;;;;;5018458;28;20048;-74
2022/03/09 08:22:18;;;;;;;11.98;6.38;;;4.10;99.90;;;;;;5051293;28;20832;-74
2022/03/09 08:24:43;;;;;;;10.57;6.65;;;4.20;99.90;;;;;;5051331;28;20045;-73
2022/03/09 08:27:09;;;;;;;11.55;6.60;;;4.30;99.90;;;;;;5034757;28;20503;-73
2022/03/09 08:29:35;;;;;;;10.32;6.57;;;4.40;99.90;;;;;;5018621;28;20127;-73
2022/03/09 08:32:00;;;;;;;9.95;6.88;;;4.40;99.90;;;;;;5051604;28;20041;-72
2022/03/09 08:34:26;;;;;;;9.95;7.30;;;4.50;99.90;;;;;;5034517;28;20056;-73
2022/03/09 08:36:52;;;;;;;9.98;6.70;;;4.60;99.90;;;;;;5051161;28;20040;-74
2022/03/09 08:39:18;;;;;;;11.85;7.18;;;4.70;99.90;;;;;;5034397;28;20052;-74
2022/03/09 08:41:46;;;;;;;10.65;6.80;;;4.70;99.90;;;;;;5034647;28;20088;-73
2022/03/09 08:44:12;;;;;;;11.00;6.43;;;4.80;99.90;;;;;;5051184;28;20072;-73
2022/03/09 08:46:38;;;;;;;10.90;6.78;;;5.00;99.90;;;;;;5050707;28;20049;-73
2022/03/09 08:49:03;;;;;;;12.05;6.50;;;5.40;99.90;;;;;;5051298;28;20442;-73
2022/03/09 08:51:29;;;;;;;10.38;7.03;;;5.10;99.90;;;;;;5034548;28;20045;-73
2022/03/09 08:53:55;;;;;;;9.80;6.45;;;5.20;99.90;;;;;;5050850;28;20132;-73
2022/03/09 08:56:21;;;;;;;12.57;6.70;;;5.30;99.90;;;;;;5017891;28;20040;-72
2022/03/09 08:58:46;;;;;;;12.68;7.20;;;5.50;99.90;;;;;;5033839;28;20084;-72
2022/03/09 09:01:13;;;;;;;10.68;6.82;;;5.60;99.90;;;;;;5050541;28;20130;-73
2022/03/09 09:03:39;;;;;;;11.45;7.05;;;6.00;99.90;;;;;;5034555;28;20384;-73
2022/03/09 09:06:05;;;;;;;11.93;6.63;;;5.80;99.90;;;;;;5050836;28;20060;-73
2022/03/09 09:08:31;;;;;;;9.65;6.75;;;5.90;99.90;;;;;;5050783;28;20076;-72
2022/03/09 09:10:57;;;;;;;11.02;7.07;;;6.00;99.90;;;;;;5050606;28;20091;-72
2022/03/09 09:13:22;;;;;;;9.50;6.47;;;6.20;99.90;;;;;;5034106;28;20045;-72
2022/03/09 09:15:49;;;;;;;11.27;6.28;;;6.30;99.90;;;;;;5034013;28;20128;-72
2022/03/09 09:18:14;;;;;;;9.93;6.57;;;6.30;99.90;;;;;;5050474;28;20032;-72
2022/03/09 09:20:41;;;;;;;9.70;6.72;;;6.50;99.90;;;;;;5050959;28;20041;-72
2022/03/09 09:23:07;;;;;;;10.85;6.43;;;6.60;99.90;;;;;;5050688;28;20544;-72
2022/03/09 09:25:32;;;;;;;8.82;6.40;;;6.70;99.90;;;;;;5050304;28;20102;-72
2022/03/09 09:27:59;;;;;;;9.27;5.72;;;5.40;99.90;;;;;;5034252;28;20049;-72
2022/03/09 09:30:26;;;;;;;10.25;6.32;;;6.80;99.90;;;;;;5050786;28;20040;-72
2022/03/09 09:32:53;;;;;;;11.80;7.10;;;7.10;99.90;;;;;;5050688;28;20087;-72
2022/03/09 09:35:19;;;;;;;14.10;6.68;;;7.10;99.90;;;;;;5050295;28;20048;-72
2022/03/09 09:37:45;;;;;;;9.80;6.18;;;7.30;99.90;;;;;;5050141;28;20033;-73
2022/03/09 09:40:13;;;;;;;8.80;5.95;;;7.40;99.90;;;;;;5034103;28;20101;-74
2022/03/09 09:42:39;;;;;;;9.70;5.75;;;7.50;99.90;;;;;;5050456;28;20045;-74
2022/03/09 09:45:07;;;;;;;10.20;6.28;;;7.60;99.60;;;;;;5050471;28;20055;-73
2022/03/09 09:47:33;;;;;;;9.85;4.70;;;7.70;99.90;;;;;;5050561;28;20045;-74
2022/03/09 09:50:02;;;;;;;10.07;5.28;;;7.70;95.20;;;;;;5050509;28;20527;-74
2022/03/09 09:52:36;;;;;;;9.25;6.32;;;7.70;95.10;;;;;;5034100;28;20138;-74
2022/03/09 09:55:04;;;;;;;8.85;6.32;;;7.80;95.70;;;;;;5033474;28;20124;-73
2022/03/09 09:57:31;;;;;;;9.48;6.03;;;7.90;95.40;;;;;;5033605;28;20037;-73
2022/03/09 09:59:58;;;;;;;9.20;5.85;;;8.00;94.50;;;;;;5050069;28;20057;-73
2022/03/09 10:02:24;;;;;;;8.00;6.07;;;8.00;93.50;;;;;;5050141;28;20048;-72
2022/03/09 10:04:50;;;;;;;11.25;6.80;;;8.60;93.30;;;;;;5050328;28;20037;-73
2022/03/09 10:07:17;;;;;;;9.05;6.38;;;8.20;94.10;;;;;;5050017;28;20045;-73
2022/03/09 10:09:43;;;;;;;7.97;5.60;;;8.30;94.40;;;;;;5033619;28;20123;-73
2022/03/09 10:12:12;;;;;;;9.00;6.25;;;8.40;92.70;;;;;;5033281;28;20048;-73
2022/03/09 10:14:52;;;;;;;9.68;6.53;;;9.10;94.90;;;;;;5033266;28;20044;-73
2022/03/09 10:17:18;;;;;;;10.13;5.95;;;8.80;97.10;;;;;;5049814;28;20392;-74
2022/03/09 10:19:52;;;;;;;8.80;6.38;;;9.00;97.80;;;;;;5049953;28;20048;-74
2022/03/09 10:22:34;;;;;;;9.75;5.93;;;9.10;99.90;;;;;;5049896;28;20041;-73
2022/03/09 10:25:20;;;;;;;9.10;6.47;;;9.00;97.80;;;;;;5049888;28;20044;-74
2022/03/09 10:27:48;;;;;;;10.77;6.40;;;9.10;95.90;;;;;;5033560;28;20052;-74
2022/03/09 10:30:29;;;;;;;8.80;6.00;;;9.80;96.10;;;;;;5033230;28;20399;-73
2022/03/09 10:32:57;;;;;;;10.25;6.70;;;9.40;91.40;;;;;;5034685;28;20084;-73
2022/03/09 10:35:32;;;;;;;10.10;6.15;;;9.70;91.70;;;;;;5049647;28;20045;-72
2022/03/09 10:38:01;;;;;;;8.80;5.95;;;9.60;91.80;;;;;;5050662;28;20072;-73
2022/03/09 10:40:28;;;;;;;10.85;6.82;;;9.70;90.90;;;;;;5053453;28;20447;-73
2022/03/09 10:43:10;;;;;;;13.07;6.80;;;9.80;90.60;;;;;;5053505;28;20377;-74
2022/03/09 10:45:36;;;;;;;;;;;9.90;90.70;;;;;;5053533;28;20045;-74
2022/03/09 10:48:03;;;;;;;9.68;5.80;;;9.90;87.60;;;;;;5036548;28;19916;-74
2022/03/09 10:50:29;;;;;;;13.10;6.75;;;10.00;87.00;;;;;;5053056;28;20045;-75
2022/03/09 10:52:57;;;;;;;9.65;6.93;;;10.00;86.40;;;;;;5036523;28;20110;-75
2022/03/09 10:55:41;;;;;;;11.55;6.82;;;10.00;86.80;;;;;;5036393;28;20041;-74
2022/03/09 10:58:10;;;;;;;9.70;6.82;;;10.00;82.80;;;;;;5036275;28;20088;-78
2022/03/09 11:00:38;;;;;;;10.27;6.78;;;10.00;86.90;;;;;;5052889;28;20041;-75
2022/03/09 11:03:12;;;;;;;10.48;7.10;;;10.10;88.40;;;;;;5036583;28;20071;-74
2022/03/09 11:05:57;;;;;;;11.25;6.78;;;10.10;84.00;;;;;;5036296;28;20076;-74
2022/03/09 11:08:27;;;;;;;9.38;6.75;;;10.30;84.70;;;;;;5052857;28;20049;-74
2022/03/09 11:10:55;;;;;;;8.18;6.45;;;10.30;85.40;;;;;;5052698;28;20052;-74
2022/03/09 11:13:22;;;;;;;9.95;7.35;;;10.50;86.40;;;;;;5052936;28;20053;-75
2022/03/09 11:15:48;;;;;;;9.32;6.75;;;10.60;86.20;;;;;;5052520;28;20045;-74
2022/03/09 11:18:19;;;;;;;11.07;7.60;;;10.60;87.50;;;;;;5036122;28;20045;-74
2022/03/09 11:20:50;;;;;;;8.70;6.63;;;10.70;88.90;;;;;;5036015;28;20405;-74
2022/03/09 11:23:17;;;;;;;10.60;7.10;;;10.70;86.20;;;;;;5052842;28;20048;-75
2022/03/09 11:26:00;;;;;;;9.75;6.82;;;10.80;87.10;;;;;;5035874;28;20041;-74
2022/03/09 11:28:34;;;;;;;8.68;6.13;;;10.80;85.20;;;;;;5052758;28;20423;-75
2022/03/09 11:31:04;;;;;;;12.05;7.22;;;10.90;83.50;;;;;;5052428;28;20104;-74
2022/03/09 11:33:50;;;;;;;11.93;7.68;;;11.00;87.10;;;;;;5035642;28;20044;-74
2022/03/09 11:36:23;;;;;;;12.15;7.00;;;11.20;87.10;;;;;;5035808;28;20535;-75
2022/03/09 11:38:52;;;;;;;10.93;7.25;;;11.30;85.00;;;;;;5036088;28;20403;-74
2022/03/09 11:41:26;;;;;;;12.05;6.90;;;11.40;84.40;;;;;;5052674;28;20094;-75
2022/03/09 11:43:53;;;;;;;8.80;7.18;;;11.50;79.60;;;;;;5036324;28;20486;-74
2022/03/09 11:46:20;;;;;;;10.77;7.13;;;11.60;82.30;;;;;;5052038;28;20040;-74
2022/03/09 11:48:50;;;;;;;11.27;6.55;;;11.70;84.50;;;;;;5019012;28;20045;-74
2022/03/09 11:51:17;;;;;;;10.37;6.83;;;11.70;82.90;;;;;;5051900;28;20041;-74
2022/03/09 11:53:51;;;;;;;7.85;6.60;;;11.80;85.30;;;;;;5035726;28;20327;-75
2022/03/09 11:56:28;;;;;;;10.57;7.13;;;12.00;84.50;;;;;;5051752;28;20041;-75
2022/03/09 11:59:18;;;;;;;10.30;7.20;;;11.80;82.40;;;;;;5051764;28;20175;-75
2022/03/09 12:02:00;;;;;;;12.57;6.60;;;12.00;81.30;;;;;;5035413;28;20056;-75
2022/03/09 12:04:42;;;;;;;9.23;6.72;;;12.00;81.30;;;;;;5035107;28;20087;-75
2022/03/09 12:07:09;;;;;;;11.00;7.10;;;12.10;80.10;;;;;;5051941;28;20128;-75
2022/03/09 12:09:57;;;;;;;10.68;7.32;;;12.10;77.60;;;;;;5051844;28;20040;-75
2022/03/09 12:12:23;;;;;;;9.50;6.50;;;12.30;79.80;;;;;;5051792;28;20060;-75
2022/03/09 12:15:02;;;;;;;8.63;6.75;;;12.40;74.90;;;;;;5035230;28;20142;-75
2022/03/09 12:17:30;;;;;;;9.90;7.22;;;12.60;76.40;;;;;;5051614;28;20128;-76
2022/03/09 12:20:25;;;;;;;10.75;7.00;;;12.70;76.40;;;;;;5035155;28;20093;-76
2022/03/09 12:23:15;;;;;;;9.48;7.10;;;12.80;74.10;;;;;;5045762;28;20052;-74
2022/03/09 12:25:48;;;;;;;9.10;6.10;;;12.90;71.30;;;;;;5034785;28;20048;-73
2022/03/09 12:28:23;;;;;;;9.32;7.38;;;13.30;71.80;;;;;;5051311;28;20045;-74
2022/03/09 12:31:15;;;;;;;12.15;7.15;;;13.60;72.20;;;;;;5034824;28;20051;-74
2022/03/09 12:33:43;;;;;;;10.38;7.50;;;13.50;70.30;;;;;;5034155;28;20044;-74
2022/03/09 12:36:09;;;;;;;11.23;7.28;;;13.70;69.90;;;;;;5034327;28;20475;-74
2022/03/09 12:38:37;;;;;;;10.50;7.30;;;13.70;68.60;;;;;;5051149;28;20099;-75
2022/03/09 12:41:02;;;;;;;9.05;7.57;;;13.80;68.50;;;;;;5034435;28;20416;-75
2022/03/09 12:43:49;;;;;;;8.43;7.28;;;13.90;69.20;;;;;;5051114;28;20044;-75
2022/03/09 12:46:15;;;;;;;8.95;7.45;;;13.90;64.50;;;;;;5051198;28;20037;-75
2022/03/09 12:48:41;;;;;;;9.98;6.88;;;14.40;70.80;;;;;;5018082;28;20032;-75
2022/03/09 12:51:08;;;;;;;10.50;8.00;;;14.40;64.20;;;;;;5034842;28;20040;-75
2022/03/09 12:53:34;;;;;;;8.93;6.97;;;14.30;64.00;;;;;;5034278;28;20041;-74